createdAt,value
2022-12-17T00:00:27.418Z,100800.61
2022-12-17T00:06:11.888Z,100805.64
2022-12-17T00:11:33.822Z,100812.62
2022-12-17T00:16:55.878Z,100818.33
2022-12-17T00:22:18.943Z,100821.31
2022-12-17T00:27:41.709Z,100821.59
2022-12-17T00:33:03.849Z,100819.21
2022-12-17T00:38:45.560Z,100820.73
2022-12-17T00:44:07.797Z,100826.60
2022-12-17T00:49:29.587Z,100832.75
2022-12-17T00:54:51.467Z,100835.65
2022-12-17T01:00:13.945Z,100837.70
2022-12-17T01:05:36.223Z,100832.01
2022-12-17T01:10:58.270Z,100835.59
2022-12-17T01:16:29.326Z,100846.60
2022-12-17T01:21:51.165Z,100855.98
2022-12-17T01:27:14.464Z,100851.55
2022-12-17T01:32:36.366Z,100849.80
2022-12-17T01:37:58.406Z,100847.41
2022-12-17T01:43:20.273Z,100847.52
2022-12-17T01:48:50.181Z,100846.81
2022-12-17T01:54:13.025Z,100842.98
2022-12-17T01:59:40.817Z,100854.70
2022-12-17T02:05:02.677Z,100864.59
2022-12-17T02:10:43.691Z,100875.11
2022-12-17T02:16:17.509Z,100877.98
2022-12-17T02:21:41.764Z,100892.68
2022-12-17T02:27:12.173Z,100891.59
2022-12-17T02:32:36.677Z,100890.77
2022-12-17T02:38:05.945Z,100894.30
2022-12-17T02:43:30.422Z,100883.16
2022-12-17T02:48:55.733Z,100887.01
2022-12-17T02:54:22.205Z,100887.95
2022-12-17T02:59:44.285Z,100888.15
2022-12-17T03:05:27.527Z,100884.28
2022-12-17T03:10:48.273Z,100884.98
2022-12-17T03:16:10.303Z,100884.00
2022-12-17T03:21:32.683Z,100888.08
2022-12-17T03:26:54.557Z,100892.15
2022-12-17T03:32:17.071Z,100895.20
2022-12-17T03:37:39.016Z,100893.42
2022-12-17T03:43:00.906Z,100899.60
2022-12-17T03:48:24.148Z,100911.39
2022-12-17T03:53:46.608Z,100919.16
2022-12-17T03:59:08.598Z,100925.42
2022-12-17T04:04:44.362Z,100920.08
2022-12-17T04:10:07.710Z,100921.93
2022-12-17T04:15:29.703Z,100918.45
2022-12-17T04:20:51.596Z,100923.67
2022-12-17T04:26:13.453Z,100932.52
2022-12-17T04:31:36.056Z,100924.19
2022-12-17T04:36:58.848Z,100928.79
2022-12-17T04:42:37.547Z,100930.81
2022-12-17T04:48:00.108Z,100932.09
2022-12-17T04:53:24.538Z,100938.20
2022-12-17T04:58:46.441Z,100945.34
2022-12-17T05:04:08.375Z,100950.52
2022-12-17T05:09:33.199Z,100955.96
2022-12-17T05:14:55.243Z,100960.28
2022-12-17T05:20:17.079Z,100965.39
2022-12-17T05:25:39.050Z,100971.77
2022-12-17T05:31:02.464Z,100978.32
2022-12-17T05:36:24.970Z,100981.29
2022-12-17T05:41:46.952Z,100995.27
2022-12-17T05:47:08.950Z,101015.64
2022-12-17T05:52:31.095Z,101024.16
2022-12-17T05:57:56.366Z,101032.52
2022-12-17T06:03:20.695Z,101036.05
2022-12-17T06:08:43.225Z,101046.70
2022-12-17T06:14:06.155Z,101058.71
2022-12-17T06:19:28.156Z,101052.10
2022-12-17T06:24:50.165Z,101062.02
2022-12-17T06:30:18.347Z,101068.55
2022-12-17T06:35:40.722Z,101073.96
2022-12-17T06:41:02.753Z,101083.06
2022-12-17T06:46:24.517Z,101083.59
2022-12-17T06:51:46.608Z,101093.92
2022-12-17T06:57:08.412Z,101101.88
2022-12-17T07:02:31.858Z,101100.06
2022-12-17T07:07:54.547Z,101093.91
2022-12-17T07:13:26.493Z,101095.55
2022-12-17T07:18:48.389Z,101098.39
2022-12-17T07:24:10.491Z,101103.34
2022-12-17T07:29:32.371Z,101110.09
2022-12-17T07:34:54.325Z,101118.70
2022-12-17T07:40:16.628Z,101129.61
2022-12-17T07:45:38.655Z,101133.65
2022-12-17T07:51:00.663Z,101141.70
2022-12-17T07:56:22.567Z,101151.67
2022-12-17T08:01:44.776Z,101152.55
2022-12-17T08:07:11.085Z,101158.40
2022-12-17T08:12:35.484Z,101163.70
2022-12-17T08:17:57.399Z,101164.02
2022-12-17T08:23:23.785Z,101166.02
2022-12-17T08:28:52.621Z,101165.22
2022-12-17T08:34:14.542Z,101172.64
2022-12-17T08:39:37.605Z,101183.29
2022-12-17T08:44:59.639Z,101186.36
2022-12-17T08:50:23.954Z,101188.31
2022-12-17T08:55:46.071Z,101171.17
2022-12-17T09:01:08.094Z,101179.11
2022-12-17T09:06:35.941Z,101183.52
2022-12-17T09:12:01.661Z,101190.67
2022-12-17T09:17:23.707Z,101194.14
2022-12-17T09:22:47.045Z,101200.41
2022-12-17T09:28:09.050Z,101196.38
2022-12-17T09:33:35.717Z,101194.89
2022-12-17T09:38:59.085Z,101197.11
2022-12-17T09:44:32.581Z,101193.97
2022-12-17T09:49:57.023Z,101194.46
2022-12-17T09:55:20.151Z,101194.41
2022-12-17T10:00:48.036Z,101190.50
2022-12-17T10:06:10.313Z,101193.59
2022-12-17T10:11:40.730Z,101190.52
2022-12-17T10:17:11.608Z,101191.67
2022-12-17T10:22:39.361Z,101197.36
2022-12-17T10:28:02.327Z,101203.70
2022-12-17T10:33:27.526Z,101206.81
2022-12-17T10:38:50.941Z,101205.10
2022-12-17T10:44:12.826Z,101207.05
2022-12-17T10:49:40.772Z,101215.81
2022-12-17T10:55:13.508Z,101218.15
2022-12-17T11:00:50.762Z,101216.35
2022-12-17T11:06:14.588Z,101207.39
2022-12-17T11:11:37.262Z,101208.80
2022-12-17T11:17:14.333Z,101215.33
2022-12-17T11:22:54.591Z,101209.59
2022-12-17T11:28:25.015Z,101215.10
2022-12-17T11:34:01.934Z,101221.73
2022-12-17T11:39:42.816Z,101226.81
2022-12-17T11:45:24.663Z,101223.29
2022-12-17T11:50:46.533Z,101229.02
2022-12-17T11:56:36.879Z,101234.02
2022-12-17T12:02:12.884Z,101229.85
2022-12-17T12:07:57.672Z,101230.14
2022-12-17T12:13:47.234Z,101229.31
2022-12-17T12:19:18.977Z,101234.02
2022-12-17T12:24:57.248Z,101233.67
2022-12-17T12:30:32.293Z,101235.95
2022-12-17T12:35:55.123Z,101238.24
2022-12-17T12:41:27.182Z,101239.93
2022-12-17T12:47:01.235Z,101242.69
2022-12-17T12:52:23.953Z,101240.63
2022-12-17T12:57:59.560Z,101240.30
2022-12-17T13:03:39.938Z,101246.77
2022-12-17T13:08:43.736Z,101247.55
2022-12-17T13:13:56.373Z,101254.70
2022-12-17T13:19:05.725Z,101260.83
2022-12-17T13:24:23.041Z,101258.88
2022-12-17T13:29:33.183Z,101269.84
2022-12-17T13:35:25.348Z,101271.95
2022-12-17T13:40:47.610Z,101280.33
2022-12-17T13:45:53.150Z,101287.52
2022-12-17T13:51:02.419Z,101292.39
2022-12-17T13:56:05.788Z,101297.50
2022-12-17T14:01:13.448Z,101309.73
2022-12-17T14:06:17.457Z,101310.44
2022-12-17T14:11:39.913Z,101316.95
2022-12-17T14:16:49.002Z,101327.44
2022-12-17T14:21:55.312Z,101339.43
2022-12-17T14:27:01.228Z,101337.17
2022-12-17T14:32:24.250Z,101341.87
2022-12-17T14:37:29.607Z,101350.43
2022-12-17T14:42:37.757Z,101351.21
2022-12-17T14:47:54.924Z,101364.64
2022-12-17T14:53:04.609Z,101366.88
2022-12-17T14:58:18.986Z,101368.16
2022-12-17T15:03:29.342Z,101376.92
2022-12-17T15:08:40.584Z,101384.30
2022-12-17T15:13:44.586Z,101389.71
2022-12-17T15:18:47.949Z,101394.27
2022-12-17T15:23:54.424Z,101398.77
2022-12-17T15:28:58.996Z,101408.00
2022-12-17T15:34:06.520Z,101408.45
2022-12-17T15:39:11.573Z,101406.36
2022-12-17T15:44:14.943Z,101410.00
2022-12-17T15:49:18.417Z,101410.84
2022-12-17T15:54:21.756Z,101420.84
2022-12-17T15:59:25.153Z,101426.42
2022-12-17T16:04:28.866Z,101434.94
2022-12-17T16:09:32.355Z,101440.89
2022-12-17T16:14:35.779Z,101440.59
2022-12-17T16:19:39.898Z,101446.38
2022-12-17T16:24:43.294Z,101446.43
2022-12-17T16:29:48.522Z,101449.99
2022-12-17T16:34:51.808Z,101452.68
2022-12-17T16:39:59.964Z,101460.17
2022-12-17T16:45:04.385Z,101459.73
2022-12-17T16:50:07.964Z,101470.56
2022-12-17T16:55:11.465Z,101472.86
2022-12-17T17:00:15.311Z,101472.44
2022-12-17T17:05:18.744Z,101475.55
2022-12-17T17:10:22.142Z,101475.57
2022-12-17T17:15:26.108Z,101476.52
2022-12-17T17:20:32.698Z,101481.76
2022-12-17T17:25:57.323Z,101487.71
2022-12-17T17:31:01.355Z,101492.67
2022-12-17T17:36:10.197Z,101496.89
2022-12-17T17:41:16.919Z,101505.66
2022-12-17T17:46:21.147Z,101502.58
2022-12-17T17:51:59.730Z,101502.02
2022-12-17T17:56:51.489Z,101507.04
2022-12-17T18:01:55.373Z,101513.95
2022-12-17T18:12:40.706Z,101538.70
2022-12-17T18:17:45.947Z,101545.31
2022-12-17T18:22:50.801Z,101559.13
2022-12-17T18:27:54.837Z,101567.20
2022-12-17T18:32:58.339Z,101567.67
2022-12-17T18:38:01.921Z,101572.88
2022-12-17T18:43:24.158Z,101578.55
2022-12-17T18:48:27.451Z,101585.38
2022-12-17T18:53:31.076Z,101596.87
2022-12-17T18:58:35.849Z,101602.88
2022-12-17T19:03:39.398Z,101609.95
2022-12-17T19:08:43.702Z,101612.42
2022-12-17T19:13:48.229Z,101611.84
2022-12-17T19:19:00.442Z,101609.48
2022-12-17T19:24:07.233Z,101609.09
2022-12-17T19:29:13.476Z,101611.70
2022-12-17T19:34:19.190Z,101611.38
2022-12-17T19:39:23.872Z,101619.39
2022-12-17T19:44:27.581Z,101616.58
2022-12-17T19:49:35.417Z,101618.52
2022-12-17T19:54:39.539Z,101627.52
2022-12-17T19:59:42.939Z,101631.70
2022-12-17T20:04:46.520Z,101639.74
2022-12-17T20:09:50.303Z,101649.41
2022-12-17T20:14:53.652Z,101654.45
2022-12-17T20:19:58.069Z,101665.20
2022-12-17T20:25:05.190Z,101666.27
2022-12-17T20:30:09.012Z,101670.76
2022-12-17T20:35:12.507Z,101680.92
2022-12-17T20:40:15.909Z,101683.77
2022-12-17T20:45:19.315Z,101690.14
2022-12-17T20:50:22.827Z,101690.46
2022-12-17T20:55:31.084Z,101689.98
2022-12-17T21:00:35.422Z,101689.98
2022-12-17T21:05:38.742Z,101697.35
2022-12-17T21:10:42.078Z,101702.38
2022-12-17T21:15:55.142Z,101706.46
2022-12-17T21:21:06.093Z,101712.48
2022-12-17T21:26:14.045Z,101712.63
2022-12-17T21:31:29.982Z,101716.69
2022-12-17T21:36:34.533Z,101722.31
2022-12-17T21:41:42.943Z,101727.23
2022-12-17T21:46:50.178Z,101730.27
2022-12-17T21:51:53.904Z,101729.95
2022-12-17T21:56:57.228Z,101735.33
2022-12-17T22:02:00.957Z,101740.95
2022-12-17T22:07:16.357Z,101745.61
2022-12-17T22:12:49.227Z,101743.94
2022-12-17T22:17:56.235Z,101754.85
2022-12-17T22:23:00.307Z,101760.95
2022-12-17T22:28:03.997Z,101768.24
2022-12-17T22:33:20.893Z,101767.39
2022-12-17T22:41:44.036Z,101769.66
2022-12-17T22:44:41.942Z,101774.83
2022-12-17T22:49:17.965Z,101783.67
2022-12-17T22:54:21.380Z,101790.70
2022-12-17T22:59:25.152Z,101794.29
2022-12-17T23:04:28.607Z,101795.70
2022-12-17T23:09:32.035Z,101802.79
2022-12-17T23:14:35.550Z,101809.92
2022-12-17T23:19:39.161Z,101811.66
2022-12-17T23:24:42.583Z,101815.52
2022-12-17T23:29:45.860Z,101824.62
2022-12-17T23:34:49.150Z,101827.09
2022-12-17T23:39:52.445Z,101823.58
2022-12-17T23:44:55.684Z,101833.09
2022-12-17T23:49:58.983Z,101839.80
2022-12-17T23:55:02.288Z,101849.89
